sensor_id;sensor_type;location;lat;lon;timestamp;P1;durP1;ratioP1;P2;durP2;ratioP2
3465;SDS011;1747;48.884;9.160;2023-02-14T00:01:49;24.00;;;10.70;;
3465;SDS011;1747;48.884;9.160;2023-02-14T00:04:16;20.42;;;10.35;;
3465;SDS011;1747;48.884;9.160;2023-02-14T00:06:44;20.90;;;10.07;;
3465;SDS011;1747;48.884;9.160;2023-02-14T00:09:12;25.48;;;11.27;;
3465;SDS011;1747;48.884;9.160;2023-02-14T00:11:42;26.25;;;11.73;;
3465;SDS011;1747;48.884;9.160;2023-02-14T00:14:09;22.30;;;10.68;;
3465;SDS011;1747;48.884;9.160;2023-02-14T00:16:54;25.55;;;10.85;;
3465;SDS011;1747;48.884;9.160;2023-02-14T00:19:22;24.90;;;10.93;;
3465;SDS011;1747;48.884;9.160;2023-02-14T00:21:49;24.58;;;10.73;;
3465;SDS011;1747;48.884;9.160;2023-02-14T00:24:17;24.15;;;11.20;;
3465;SDS011;1747;48.884;9.160;2023-02-14T00:26:46;20.85;;;10.27;;
3465;SDS011;1747;48.884;9.160;2023-02-14T00:29:14;18.40;;;10.07;;
3465;SDS011;1747;48.884;9.160;2023-02-14T00:31:42;22.75;;;10.70;;
3465;SDS011;1747;48.884;9.160;2023-02-14T00:34:12;22.65;;;10.32;;
3465;SDS011;1747;48.884;9.160;2023-02-14T00:36:40;24.50;;;11.20;;
3465;SDS011;1747;48.884;9.160;2023-02-14T00:39:08;23.92;;;10.88;;
3465;SDS011;1747;48.884;9.160;2023-02-14T00:41:36;24.08;;;10.15;;
3465;SDS011;1747;48.884;9.160;2023-02-14T00:44:05;23.40;;;11.07;;
3465;SDS011;1747;48.884;9.160;2023-02-14T00:46:32;23.58;;;10.70;;
3465;SDS011;1747;48.884;9.160;2023-02-14T00:48:59;21.83;;;10.95;;
3465;SDS011;1747;48.884;9.160;2023-02-14T00:51:26;22.90;;;10.90;;
3465;SDS011;1747;48.884;9.160;2023-02-14T00:53:53;25.15;;;10.32;;
3465;SDS011;1747;48.884;9.160;2023-02-14T00:56:20;24.70;;;11.50;;
3465;SDS011;1747;48.884;9.160;2023-02-14T00:58:47;23.90;;;10.88;;
3465;SDS011;1747;48.884;9.160;2023-02-14T01:01:16;19.52;;;9.88;;
3465;SDS011;1747;48.884;9.160;2023-02-14T01:03:44;21.83;;;10.65;;
3465;SDS011;1747;48.884;9.160;2023-02-14T01:06:11;20.60;;;10.15;;
3465;SDS011;1747;48.884;9.160;2023-02-14T01:08:38;26.00;;;10.65;;
3465;SDS011;1747;48.884;9.160;2023-02-14T01:11:05;23.55;;;10.40;;
3465;SDS011;1747;48.884;9.160;2023-02-14T01:13:33;22.38;;;10.25;;
3465;SDS011;1747;48.884;9.160;2023-02-14T01:16:03;19.73;;;10.25;;
3465;SDS011;1747;48.884;9.160;2023-02-14T01:18:33;24.48;;;10.55;;
3465;SDS011;1747;48.884;9.160;2023-02-14T01:21:10;26.15;;;11.55;;
3465;SDS011;1747;48.884;9.160;2023-02-14T01:23:39;22.20;;;10.82;;
3465;SDS011;1747;48.884;9.160;2023-02-14T01:26:06;19.23;;;9.88;;
3465;SDS011;1747;48.884;9.160;2023-02-14T01:28:33;21.70;;;10.90;;
3465;SDS011;1747;48.884;9.160;2023-02-14T01:31:07;21.17;;;10.57;;
3465;SDS011;1747;48.884;9.160;2023-02-14T01:33:37;21.83;;;10.68;;
3465;SDS011;1747;48.884;9.160;2023-02-14T01:36:04;22.75;;;10.50;;
3465;SDS011;1747;48.884;9.160;2023-02-14T01:38:32;23.50;;;10.85;;
3465;SDS011;1747;48.884;9.160;2023-02-14T01:40:59;24.60;;;10.50;;
3465;SDS011;1747;48.884;9.160;2023-02-14T01:43:25;25.35;;;11.35;;
3465;SDS011;1747;48.884;9.160;2023-02-14T01:45:52;23.80;;;10.55;;
3465;SDS011;1747;48.884;9.160;2023-02-14T01:48:19;21.08;;;10.30;;
3465;SDS011;1747;48.884;9.160;2023-02-14T01:50:49;23.45;;;11.52;;
3465;SDS011;1747;48.884;9.160;2023-02-14T01:53:19;22.08;;;10.98;;
3465;SDS011;1747;48.884;9.160;2023-02-14T01:55:51;24.60;;;10.85;;
3465;SDS011;1747;48.884;9.160;2023-02-14T01:58:25;22.00;;;11.30;;
3465;SDS011;1747;48.884;9.160;2023-02-14T02:00:54;23.13;;;11.10;;
3465;SDS011;1747;48.884;9.160;2023-02-14T02:03:25;23.42;;;10.93;;
3465;SDS011;1747;48.884;9.160;2023-02-14T02:05:56;22.52;;;10.50;;
3465;SDS011;1747;48.884;9.160;2023-02-14T02:08:27;20.83;;;10.50;;
3465;SDS011;1747;48.884;9.160;2023-02-14T02:10:54;22.55;;;10.80;;
3465;SDS011;1747;48.884;9.160;2023-02-14T02:13:20;22.42;;;10.93;;
3465;SDS011;1747;48.884;9.160;2023-02-14T02:18:41;23.60;;;10.88;;
3465;SDS011;1747;48.884;9.160;2023-02-14T02:21:24;22.20;;;10.63;;
3465;SDS011;1747;48.884;9.160;2023-02-14T02:24:28;20.50;;;10.18;;
3465;SDS011;1747;48.884;9.160;2023-02-14T02:27:19;22.33;;;10.48;;
3465;SDS011;1747;48.884;9.160;2023-02-14T02:30:10;24.75;;;11.30;;
3465;SDS011;1747;48.884;9.160;2023-02-14T02:33:07;22.33;;;9.75;;
3465;SDS011;1747;48.884;9.160;2023-02-14T02:36:09;23.25;;;10.43;;
3465;SDS011;1747;48.884;9.160;2023-02-14T02:38:57;21.77;;;10.93;;
3465;SDS011;1747;48.884;9.160;2023-02-14T02:41:39;22.48;;;11.10;;
3465;SDS011;1747;48.884;9.160;2023-02-14T02:44:15;23.60;;;10.73;;
3465;SDS011;1747;48.884;9.160;2023-02-14T02:46:45;22.58;;;10.95;;
3465;SDS011;1747;48.884;9.160;2023-02-14T02:49:22;24.17;;;10.35;;
3465;SDS011;1747;48.884;9.160;2023-02-14T02:52:19;22.35;;;10.63;;
3465;SDS011;1747;48.884;9.160;2023-02-14T02:55:12;23.88;;;10.93;;
3465;SDS011;1747;48.884;9.160;2023-02-14T02:57:41;26.42;;;11.00;;
3465;SDS011;1747;48.884;9.160;2023-02-14T03:00:08;24.83;;;10.35;;
3465;SDS011;1747;48.884;9.160;2023-02-14T03:02:38;24.00;;;11.38;;
3465;SDS011;1747;48.884;9.160;2023-02-14T04:17:57;23.98;;;10.60;;
3465;SDS011;1747;48.884;9.160;2023-02-14T04:20:41;19.92;;;10.35;;
3465;SDS011;1747;48.884;9.160;2023-02-14T04:23:08;24.23;;;10.60;;
3465;SDS011;1747;48.884;9.160;2023-02-14T04:25:35;20.67;;;10.05;;
3465;SDS011;1747;48.884;9.160;2023-02-14T04:28:04;22.38;;;10.25;;
3465;SDS011;1747;48.884;9.160;2023-02-14T04:30:31;23.30;;;10.48;;
3465;SDS011;1747;48.884;9.160;2023-02-14T04:32:59;23.13;;;10.63;;
3465;SDS011;1747;48.884;9.160;2023-02-14T04:35:26;25.08;;;10.98;;
3465;SDS011;1747;48.884;9.160;2023-02-14T04:37:53;24.88;;;10.23;;
3465;SDS011;1747;48.884;9.160;2023-02-14T04:40:20;23.50;;;10.43;;
3465;SDS011;1747;48.884;9.160;2023-02-14T04:42:47;21.48;;;10.30;;
3465;SDS011;1747;48.884;9.160;2023-02-14T04:45:14;22.60;;;10.65;;
3465;SDS011;1747;48.884;9.160;2023-02-14T04:47:41;22.50;;;10.55;;
3465;SDS011;1747;48.884;9.160;2023-02-14T04:50:09;21.95;;;10.45;;
3465;SDS011;1747;48.884;9.160;2023-02-14T04:52:36;24.95;;;10.48;;
3465;SDS011;1747;48.884;9.160;2023-02-14T04:55:03;21.70;;;10.52;;
3465;SDS011;1747;48.884;9.160;2023-02-14T04:57:31;25.50;;;10.65;;
3465;SDS011;1747;48.884;9.160;2023-02-14T04:59:58;21.70;;;9.98;;
3465;SDS011;1747;48.884;9.160;2023-02-14T05:02:25;21.27;;;10.45;;
3465;SDS011;1747;48.884;9.160;2023-02-14T05:04:52;25.70;;;10.40;;
3465;SDS011;1747;48.884;9.160;2023-02-14T05:07:20;21.42;;;10.73;;
3465;SDS011;1747;48.884;9.160;2023-02-14T05:09:47;25.27;;;10.23;;
3465;SDS011;1747;48.884;9.160;2023-02-14T05:12:14;21.95;;;10.57;;
3465;SDS011;1747;48.884;9.160;2023-02-14T05:14:42;19.40;;;9.82;;
3465;SDS011;1747;48.884;9.160;2023-02-14T05:17:08;22.77;;;10.25;;
3465;SDS011;1747;48.884;9.160;2023-02-14T05:19:35;22.38;;;11.05;;
3465;SDS011;1747;48.884;9.160;2023-02-14T05:22:02;22.98;;;10.43;;
3465;SDS011;1747;48.884;9.160;2023-02-14T05:24:31;23.30;;;10.27;;
3465;SDS011;1747;48.884;9.160;2023-02-14T05:26:57;17.75;;;9.95;;
3465;SDS011;1747;48.884;9.160;2023-02-14T05:29:24;22.23;;;10.15;;
3465;SDS011;1747;48.884;9.160;2023-02-14T05:31:51;19.58;;;9.80;;
3465;SDS011;1747;48.884;9.160;2023-02-14T05:34:18;23.55;;;9.63;;
3465;SDS011;1747;48.884;9.160;2023-02-14T05:36:45;20.05;;;10.38;;
3465;SDS011;1747;48.884;9.160;2023-02-14T05:39:12;20.90;;;9.95;;
3465;SDS011;1747;48.884;9.160;2023-02-14T05:41:40;22.40;;;10.60;;
3465;SDS011;1747;48.884;9.160;2023-02-14T05:44:07;19.88;;;9.50;;
3465;SDS011;1747;48.884;9.160;2023-02-14T05:46:34;19.77;;;9.63;;
3465;SDS011;1747;48.884;9.160;2023-02-14T05:49:00;21.60;;;10.20;;
3465;SDS011;1747;48.884;9.160;2023-02-14T05:51:28;20.17;;;9.80;;
3465;SDS011;1747;48.884;9.160;2023-02-14T05:53:54;20.92;;;10.20;;
3465;SDS011;1747;48.884;9.160;2023-02-14T05:56:24;22.30;;;10.20;;
3465;SDS011;1747;48.884;9.160;2023-02-14T05:58:52;23.30;;;10.32;;
3465;SDS011;1747;48.884;9.160;2023-02-14T06:01:18;20.27;;;9.20;;
3465;SDS011;1747;48.884;9.160;2023-02-14T06:03:45;23.25;;;10.27;;
3465;SDS011;1747;48.884;9.160;2023-02-14T06:06:12;17.63;;;7.57;;
3465;SDS011;1747;48.884;9.160;2023-02-14T06:08:39;18.67;;;10.05;;
3465;SDS011;1747;48.884;9.160;2023-02-14T06:11:06;22.48;;;9.98;;
3465;SDS011;1747;48.884;9.160;2023-02-14T06:13:33;21.20;;;9.20;;
3465;SDS011;1747;48.884;9.160;2023-02-14T06:16:02;22.20;;;10.65;;
3465;SDS011;1747;48.884;9.160;2023-02-14T06:18:30;20.30;;;9.32;;
3465;SDS011;1747;48.884;9.160;2023-02-14T06:20:56;19.00;;;9.63;;
3465;SDS011;1747;48.884;9.160;2023-02-14T06:23:23;22.17;;;10.05;;
3465;SDS011;1747;48.884;9.160;2023-02-14T06:25:50;18.00;;;9.57;;
3465;SDS011;1747;48.884;9.160;2023-02-14T06:28:17;19.10;;;9.82;;
3465;SDS011;1747;48.884;9.160;2023-02-14T06:30:44;20.65;;;9.70;;
3465;SDS011;1747;48.884;9.160;2023-02-14T06:33:13;18.73;;;9.43;;
3465;SDS011;1747;48.884;9.160;2023-02-14T06:35:40;20.45;;;9.38;;
3465;SDS011;1747;48.884;9.160;2023-02-14T06:38:07;19.67;;;9.68;;
3465;SDS011;1747;48.884;9.160;2023-02-14T06:40:34;20.98;;;9.82;;
3465;SDS011;1747;48.884;9.160;2023-02-14T06:43:01;21.63;;;9.45;;
3465;SDS011;1747;48.884;9.160;2023-02-14T06:45:27;21.83;;;9.77;;
3465;SDS011;1747;48.884;9.160;2023-02-14T06:47:54;20.08;;;9.13;;
3465;SDS011;1747;48.884;9.160;2023-02-14T06:50:22;18.40;;;9.52;;
3465;SDS011;1747;48.884;9.160;2023-02-14T06:52:49;21.08;;;9.52;;
3465;SDS011;1747;48.884;9.160;2023-02-14T06:55:16;21.20;;;9.65;;
3465;SDS011;1747;48.884;9.160;2023-02-14T06:57:43;20.77;;;9.43;;
3465;SDS011;1747;48.884;9.160;2023-02-14T07:00:10;20.20;;;9.88;;
3465;SDS011;1747;48.884;9.160;2023-02-14T07:02:38;18.58;;;8.85;;
3465;SDS011;1747;48.884;9.160;2023-02-14T07:05:05;21.38;;;10.65;;
3465;SDS011;1747;48.884;9.160;2023-02-14T07:07:34;21.20;;;9.60;;
3465;SDS011;1747;48.884;9.160;2023-02-14T07:10:01;21.02;;;10.13;;
3465;SDS011;1747;48.884;9.160;2023-02-14T07:12:28;22.10;;;10.18;;
3465;SDS011;1747;48.884;9.160;2023-02-14T07:14:54;23.98;;;10.48;;
3465;SDS011;1747;48.884;9.160;2023-02-14T07:17:21;21.55;;;9.68;;
3465;SDS011;1747;48.884;9.160;2023-02-14T07:19:48;22.98;;;10.02;;
3465;SDS011;1747;48.884;9.160;2023-02-14T07:22:15;21.67;;;10.38;;
3465;SDS011;1747;48.884;9.160;2023-02-14T07:24:43;23.17;;;10.82;;
3465;SDS011;1747;48.884;9.160;2023-02-14T07:27:10;27.98;;;11.63;;
3465;SDS011;1747;48.884;9.160;2023-02-14T07:29:37;21.48;;;9.88;;
3465;SDS011;1747;48.884;9.160;2023-02-14T07:32:04;20.90;;;10.18;;
3465;SDS011;1747;48.884;9.160;2023-02-14T07:34:31;26.83;;;10.20;;
3465;SDS011;1747;48.884;9.160;2023-02-14T07:36:58;22.17;;;10.18;;
3465;SDS011;1747;48.884;9.160;2023-02-14T07:39:26;21.85;;;10.95;;
3465;SDS011;1747;48.884;9.160;2023-02-14T07:41:54;25.38;;;11.57;;
3465;SDS011;1747;48.884;9.160;2023-02-14T07:44:21;21.90;;;10.43;;
3465;SDS011;1747;48.884;9.160;2023-02-14T07:46:48;24.40;;;10.32;;
3465;SDS011;1747;48.884;9.160;2023-02-14T07:49:15;24.38;;;10.75;;
3465;SDS011;1747;48.884;9.160;2023-02-14T07:51:41;23.25;;;10.77;;
3465;SDS011;1747;48.884;9.160;2023-02-14T07:54:08;27.50;;;12.45;;
3465;SDS011;1747;48.884;9.160;2023-02-14T07:56:35;25.15;;;11.98;;
3465;SDS011;1747;48.884;9.160;2023-02-14T07:59:03;20.58;;;10.48;;
3465;SDS011;1747;48.884;9.160;2023-02-14T08:01:30;26.35;;;11.73;;
3465;SDS011;1747;48.884;9.160;2023-02-14T08:03:57;25.30;;;12.00;;
3465;SDS011;1747;48.884;9.160;2023-02-14T08:06:24;23.40;;;11.50;;
3465;SDS011;1747;48.884;9.160;2023-02-14T08:08:52;25.25;;;11.85;;
3465;SDS011;1747;48.884;9.160;2023-02-14T08:11:18;26.40;;;11.57;;
3465;SDS011;1747;48.884;9.160;2023-02-14T08:13:59;27.35;;;11.68;;
3465;SDS011;1747;48.884;9.160;2023-02-14T08:16:27;25.02;;;11.95;;
3465;SDS011;1747;48.884;9.160;2023-02-14T08:18:56;26.17;;;11.10;;
3465;SDS011;1747;48.884;9.160;2023-02-14T08:21:23;29.08;;;13.07;;
3465;SDS011;1747;48.884;9.160;2023-02-14T08:23:50;25.30;;;11.98;;
3465;SDS011;1747;48.884;9.160;2023-02-14T08:26:16;27.85;;;13.02;;
3465;SDS011;1747;48.884;9.160;2023-02-14T08:28:43;26.15;;;12.00;;
3465;SDS011;1747;48.884;9.160;2023-02-14T08:31:10;32.00;;;12.32;;
3465;SDS011;1747;48.884;9.160;2023-02-14T08:33:38;26.63;;;11.80;;
3465;SDS011;1747;48.884;9.160;2023-02-14T08:36:07;23.67;;;12.25;;
3465;SDS011;1747;48.884;9.160;2023-02-14T08:38:34;22.33;;;11.38;;
3465;SDS011;1747;48.884;9.160;2023-02-14T08:41:01;23.20;;;11.18;;
3465;SDS011;1747;48.884;9.160;2023-02-14T08:43:28;23.63;;;11.88;;
3465;SDS011;1747;48.884;9.160;2023-02-14T08:45:54;22.80;;;11.57;;
3465;SDS011;1747;48.884;9.160;2023-02-14T08:48:21;25.35;;;12.13;;
3465;SDS011;1747;48.884;9.160;2023-02-14T08:50:52;24.02;;;12.13;;
3465;SDS011;1747;48.884;9.160;2023-02-14T08:53:19;22.08;;;11.43;;
3465;SDS011;1747;48.884;9.160;2023-02-14T08:55:46;25.15;;;11.85;;
3465;SDS011;1747;48.884;9.160;2023-02-14T08:58:13;33.30;;;13.35;;
3465;SDS011;1747;48.884;9.160;2023-02-14T09:00:40;24.55;;;11.60;;
3465;SDS011;1747;48.884;9.160;2023-02-14T09:03:07;22.77;;;11.63;;
3465;SDS011;1747;48.884;9.160;2023-02-14T09:05:34;23.50;;;11.98;;
3465;SDS011;1747;48.884;9.160;2023-02-14T09:08:03;23.95;;;10.82;;
3465;SDS011;1747;48.884;9.160;2023-02-14T09:10:29;25.77;;;12.07;;
3465;SDS011;1747;48.884;9.160;2023-02-14T09:12:56;28.42;;;12.63;;
3465;SDS011;1747;48.884;9.160;2023-02-14T09:15:23;20.40;;;10.75;;
3465;SDS011;1747;48.884;9.160;2023-02-14T09:17:50;25.00;;;12.43;;
3465;SDS011;1747;48.884;9.160;2023-02-14T09:20:17;24.98;;;12.63;;
3465;SDS011;1747;48.884;9.160;2023-02-14T09:22:44;23.35;;;12.40;;
3465;SDS011;1747;48.884;9.160;2023-02-14T09:25:12;21.42;;;11.40;;
3465;SDS011;1747;48.884;9.160;2023-02-14T09:27:39;23.83;;;12.23;;
3465;SDS011;1747;48.884;9.160;2023-02-14T09:30:06;24.65;;;12.70;;
3465;SDS011;1747;48.884;9.160;2023-02-14T09:32:35;26.95;;;13.30;;
3465;SDS011;1747;48.884;9.160;2023-02-14T09:35:02;25.45;;;12.88;;
3465;SDS011;1747;48.884;9.160;2023-02-14T09:37:28;23.58;;;12.18;;
3465;SDS011;1747;48.884;9.160;2023-02-14T09:39:55;26.23;;;12.93;;
3465;SDS011;1747;48.884;9.160;2023-02-14T09:45:32;22.95;;;12.98;;
3465;SDS011;1747;48.884;9.160;2023-02-14T09:48:01;24.05;;;12.52;;
3465;SDS011;1747;48.884;9.160;2023-02-14T09:50:32;25.17;;;12.27;;
3465;SDS011;1747;48.884;9.160;2023-02-14T09:53:05;28.15;;;12.52;;
3465;SDS011;1747;48.884;9.160;2023-02-14T09:55:51;21.95;;;12.35;;
3465;SDS011;1747;48.884;9.160;2023-02-14T09:58:26;24.42;;;12.52;;
3465;SDS011;1747;48.884;9.160;2023-02-14T10:01:00;22.50;;;11.93;;
3465;SDS011;1747;48.884;9.160;2023-02-14T10:03:41;23.40;;;12.98;;
3465;SDS011;1747;48.884;9.160;2023-02-14T10:06:23;23.75;;;12.57;;
3465;SDS011;1747;48.884;9.160;2023-02-14T10:09:05;25.90;;;12.38;;
3465;SDS011;1747;48.884;9.160;2023-02-14T10:11:39;23.85;;;12.25;;
3465;SDS011;1747;48.884;9.160;2023-02-14T10:14:09;26.73;;;12.98;;
3465;SDS011;1747;48.884;9.160;2023-02-14T10:16:42;25.83;;;13.43;;
3465;SDS011;1747;48.884;9.160;2023-02-14T10:19:14;26.77;;;13.73;;
3465;SDS011;1747;48.884;9.160;2023-02-14T10:21:46;26.83;;;13.93;;
3465;SDS011;1747;48.884;9.160;2023-02-14T10:24:17;20.80;;;12.20;;
3465;SDS011;1747;48.884;9.160;2023-02-14T10:26:49;25.70;;;14.00;;
3465;SDS011;1747;48.884;9.160;2023-02-14T10:29:18;25.98;;;13.20;;
3465;SDS011;1747;48.884;9.160;2023-02-14T10:31:48;21.77;;;12.15;;
3465;SDS011;1747;48.884;9.160;2023-02-14T10:34:21;23.05;;;13.15;;
3465;SDS011;1747;48.884;9.160;2023-02-14T10:37:00;24.52;;;12.07;;
3465;SDS011;1747;48.884;9.160;2023-02-14T10:39:42;25.80;;;12.77;;
3465;SDS011;1747;48.884;9.160;2023-02-14T10:42:21;28.75;;;13.70;;
3465;SDS011;1747;48.884;9.160;2023-02-14T10:44:56;27.17;;;13.80;;
3465;SDS011;1747;48.884;9.160;2023-02-14T10:47:35;23.65;;;13.48;;
3465;SDS011;1747;48.884;9.160;2023-02-14T10:50:10;23.67;;;12.98;;
3465;SDS011;1747;48.884;9.160;2023-02-14T10:52:45;26.73;;;13.32;;
3465;SDS011;1747;48.884;9.160;2023-02-14T10:55:21;24.52;;;13.82;;
3465;SDS011;1747;48.884;9.160;2023-02-14T10:57:52;23.17;;;12.82;;
3465;SDS011;1747;48.884;9.160;2023-02-14T11:00:22;23.70;;;13.50;;
3465;SDS011;1747;48.884;9.160;2023-02-14T11:02:52;25.38;;;13.65;;
3465;SDS011;1747;48.884;9.160;2023-02-14T11:05:24;25.25;;;12.88;;
3465;SDS011;1747;48.884;9.160;2023-02-14T11:07:53;23.25;;;12.68;;
3465;SDS011;1747;48.884;9.160;2023-02-14T11:10:23;25.08;;;13.18;;
3465;SDS011;1747;48.884;9.160;2023-02-14T11:12:52;22.80;;;12.93;;
3465;SDS011;1747;48.884;9.160;2023-02-14T11:15:20;22.60;;;13.07;;
3465;SDS011;1747;48.884;9.160;2023-02-14T11:17:50;26.40;;;13.25;;
3465;SDS011;1747;48.884;9.160;2023-02-14T11:20:38;26.45;;;13.70;;
3465;SDS011;1747;48.884;9.160;2023-02-14T11:23:17;23.13;;;13.35;;
3465;SDS011;1747;48.884;9.160;2023-02-14T11:25:48;26.95;;;13.40;;
3465;SDS011;1747;48.884;9.160;2023-02-14T11:28:17;23.25;;;13.70;;
3465;SDS011;1747;48.884;9.160;2023-02-14T11:30:45;25.27;;;13.90;;
3465;SDS011;1747;48.884;9.160;2023-02-14T11:33:22;26.13;;;13.25;;
3465;SDS011;1747;48.884;9.160;2023-02-14T11:35:59;23.80;;;12.98;;
3465;SDS011;1747;48.884;9.160;2023-02-14T11:38:27;24.92;;;13.70;;
3465;SDS011;1747;48.884;9.160;2023-02-14T11:40:58;26.15;;;14.02;;
3465;SDS011;1747;48.884;9.160;2023-02-14T11:43:29;26.63;;;14.52;;
3465;SDS011;1747;48.884;9.160;2023-02-14T11:46:03;22.58;;;12.70;;
3465;SDS011;1747;48.884;9.160;2023-02-14T11:48:40;24.33;;;12.82;;
3465;SDS011;1747;48.884;9.160;2023-02-14T11:51:24;29.63;;;14.02;;
3465;SDS011;1747;48.884;9.160;2023-02-14T11:53:54;24.80;;;14.18;;
3465;SDS011;1747;48.884;9.160;2023-02-14T11:56:25;25.73;;;14.30;;
3465;SDS011;1747;48.884;9.160;2023-02-14T11:59:11;25.08;;;13.18;;
3465;SDS011;1747;48.884;9.160;2023-02-14T12:01:48;23.35;;;13.35;;
3465;SDS011;1747;48.884;9.160;2023-02-14T12:04:16;23.77;;;13.55;;
3465;SDS011;1747;48.884;9.160;2023-02-14T12:06:47;27.92;;;14.43;;
3465;SDS011;1747;48.884;9.160;2023-02-14T12:09:22;23.35;;;12.80;;
3465;SDS011;1747;48.884;9.160;2023-02-14T12:11:55;28.02;;;14.70;;
3465;SDS011;1747;48.884;9.160;2023-02-14T12:14:23;28.67;;;13.95;;
3465;SDS011;1747;48.884;9.160;2023-02-14T12:16:55;23.50;;;13.75;;
3465;SDS011;1747;48.884;9.160;2023-02-14T12:19:29;25.60;;;13.63;;
3465;SDS011;1747;48.884;9.160;2023-02-14T12:22:03;24.50;;;13.45;;
3465;SDS011;1747;48.884;9.160;2023-02-14T12:24:32;27.42;;;13.90;;
3465;SDS011;1747;48.884;9.160;2023-02-14T12:27:03;27.15;;;14.93;;
3465;SDS011;1747;48.884;9.160;2023-02-14T12:29:44;24.17;;;13.70;;
3465;SDS011;1747;48.884;9.160;2023-02-14T12:32:18;25.80;;;14.77;;
3465;SDS011;1747;48.884;9.160;2023-02-14T12:34:49;22.85;;;13.57;;
3465;SDS011;1747;48.884;9.160;2023-02-14T12:37:24;25.23;;;13.75;;
3465;SDS011;1747;48.884;9.160;2023-02-14T12:40:16;26.40;;;14.73;;
3465;SDS011;1747;48.884;9.160;2023-02-14T12:42:54;24.05;;;14.65;;
3465;SDS011;1747;48.884;9.160;2023-02-14T12:45:32;25.88;;;14.27;;
3465;SDS011;1747;48.884;9.160;2023-02-14T12:48:19;23.42;;;14.20;;
3465;SDS011;1747;48.884;9.160;2023-02-14T12:50:56;21.48;;;14.00;;
3465;SDS011;1747;48.884;9.160;2023-02-14T12:56:24;23.48;;;14.02;;
3465;SDS011;1747;48.884;9.160;2023-02-14T12:59:03;23.33;;;14.60;;
3465;SDS011;1747;48.884;9.160;2023-02-14T13:01:52;23.08;;;14.57;;
3465;SDS011;1747;48.884;9.160;2023-02-14T13:04:31;22.73;;;14.25;;
3465;SDS011;1747;48.884;9.160;2023-02-14T13:07:07;20.02;;;13.98;;
3465;SDS011;1747;48.884;9.160;2023-02-14T13:09:43;22.63;;;14.32;;
3465;SDS011;1747;48.884;9.160;2023-02-14T13:12:16;21.05;;;14.13;;
3465;SDS011;1747;48.884;9.160;2023-02-14T13:15:00;21.45;;;14.35;;
3465;SDS011;1747;48.884;9.160;2023-02-14T13:17:39;23.85;;;15.07;;
3465;SDS011;1747;48.884;9.160;2023-02-14T13:20:20;22.42;;;15.38;;
3465;SDS011;1747;48.884;9.160;2023-02-14T13:23:00;21.10;;;14.55;;
3465;SDS011;1747;48.884;9.160;2023-02-14T13:25:31;21.90;;;15.02;;
3465;SDS011;1747;48.884;9.160;2023-02-14T13:28:01;21.20;;;14.45;;
3465;SDS011;1747;48.884;9.160;2023-02-14T13:30:31;22.70;;;14.98;;
3465;SDS011;1747;48.884;9.160;2023-02-14T13:33:02;19.80;;;13.85;;
3465;SDS011;1747;48.884;9.160;2023-02-14T13:35:32;23.13;;;14.43;;
3465;SDS011;1747;48.884;9.160;2023-02-14T13:38:02;20.60;;;15.05;;
3465;SDS011;1747;48.884;9.160;2023-02-14T13:40:32;20.83;;;14.60;;
3465;SDS011;1747;48.884;9.160;2023-02-14T13:43:01;22.95;;;14.63;;
3465;SDS011;1747;48.884;9.160;2023-02-14T13:45:50;22.48;;;15.60;;
3465;SDS011;1747;48.884;9.160;2023-02-14T13:48:21;20.70;;;14.68;;
3465;SDS011;1747;48.884;9.160;2023-02-14T13:50:51;25.25;;;15.02;;
3465;SDS011;1747;48.884;9.160;2023-02-14T13:53:29;22.42;;;14.43;;
3465;SDS011;1747;48.884;9.160;2023-02-14T13:56:01;22.33;;;14.10;;
3465;SDS011;1747;48.884;9.160;2023-02-14T13:58:30;22.15;;;14.98;;
3465;SDS011;1747;48.884;9.160;2023-02-14T14:00:59;21.63;;;14.73;;
3465;SDS011;1747;48.884;9.160;2023-02-14T14:03:57;23.23;;;15.73;;
3465;SDS011;1747;48.884;9.160;2023-02-14T14:06:25;26.38;;;15.02;;
3465;SDS011;1747;48.884;9.160;2023-02-14T14:08:54;20.33;;;14.30;;
3465;SDS011;1747;48.884;9.160;2023-02-14T14:14:31;22.50;;;15.68;;
3465;SDS011;1747;48.884;9.160;2023-02-14T14:17:16;23.00;;;14.27;;
3465;SDS011;1747;48.884;9.160;2023-02-14T14:19:49;19.63;;;14.63;;
3465;SDS011;1747;48.884;9.160;2023-02-14T14:22:17;23.08;;;15.18;;
3465;SDS011;1747;48.884;9.160;2023-02-14T14:24:59;20.77;;;14.77;;
3465;SDS011;1747;48.884;9.160;2023-02-14T14:27:30;21.42;;;14.82;;
3465;SDS011;1747;48.884;9.160;2023-02-14T14:29:59;23.92;;;15.10;;
3465;SDS011;1747;48.884;9.160;2023-02-14T14:32:29;21.52;;;14.98;;
3465;SDS011;1747;48.884;9.160;2023-02-14T14:34:57;21.63;;;14.75;;
3465;SDS011;1747;48.884;9.160;2023-02-14T14:37:27;20.40;;;14.35;;
3465;SDS011;1747;48.884;9.160;2023-02-14T14:39:57;20.70;;;14.93;;
3465;SDS011;1747;48.884;9.160;2023-02-14T14:42:27;21.35;;;15.30;;
3465;SDS011;1747;48.884;9.160;2023-02-14T14:44:56;23.42;;;15.73;;
3465;SDS011;1747;48.884;9.160;2023-02-14T14:47:27;22.52;;;15.93;;
3465;SDS011;1747;48.884;9.160;2023-02-14T14:50:03;22.35;;;14.95;;
3465;SDS011;1747;48.884;9.160;2023-02-14T14:52:34;19.42;;;14.30;;
3465;SDS011;1747;48.884;9.160;2023-02-14T14:55:05;21.85;;;15.27;;
3465;SDS011;1747;48.884;9.160;2023-02-14T14:57:34;22.10;;;15.48;;
3465;SDS011;1747;48.884;9.160;2023-02-14T15:00:06;21.75;;;15.90;;
3465;SDS011;1747;48.884;9.160;2023-02-14T15:02:53;19.63;;;14.55;;
3465;SDS011;1747;48.884;9.160;2023-02-14T15:05:23;21.73;;;14.68;;
3465;SDS011;1747;48.884;9.160;2023-02-14T15:07:52;21.55;;;15.00;;
3465;SDS011;1747;48.884;9.160;2023-02-14T15:10:22;19.70;;;14.52;;
3465;SDS011;1747;48.884;9.160;2023-02-14T15:12:50;21.75;;;15.55;;
3465;SDS011;1747;48.884;9.160;2023-02-14T15:15:35;20.63;;;14.98;;
3465;SDS011;1747;48.884;9.160;2023-02-14T15:18:03;19.75;;;14.15;;
3465;SDS011;1747;48.884;9.160;2023-02-14T15:20:31;19.45;;;13.88;;
3465;SDS011;1747;48.884;9.160;2023-02-14T15:23:00;18.63;;;13.98;;
3465;SDS011;1747;48.884;9.160;2023-02-14T15:25:29;20.85;;;13.98;;
3465;SDS011;1747;48.884;9.160;2023-02-14T15:27:58;23.20;;;15.02;;
3465;SDS011;1747;48.884;9.160;2023-02-14T15:30:26;19.38;;;14.85;;
3465;SDS011;1747;48.884;9.160;2023-02-14T15:32:58;20.02;;;15.00;;
3465;SDS011;1747;48.884;9.160;2023-02-14T15:35:27;25.67;;;15.63;;
3465;SDS011;1747;48.884;9.160;2023-02-14T15:37:56;21.88;;;15.07;;
3465;SDS011;1747;48.884;9.160;2023-02-14T15:40:27;24.02;;;15.18;;
3465;SDS011;1747;48.884;9.160;2023-02-14T15:42:57;22.65;;;15.65;;
3465;SDS011;1747;48.884;9.160;2023-02-14T15:45:37;22.48;;;14.95;;
3465;SDS011;1747;48.884;9.160;2023-02-14T15:48:05;22.27;;;14.38;;
3465;SDS011;1747;48.884;9.160;2023-02-14T15:50:42;24.70;;;14.98;;
3465;SDS011;1747;48.884;9.160;2023-02-14T15:53:21;19.95;;;13.98;;
3465;SDS011;1747;48.884;9.160;2023-02-14T15:56:04;21.55;;;15.57;;
3465;SDS011;1747;48.884;9.160;2023-02-14T15:58:33;27.35;;;15.05;;
3465;SDS011;1747;48.884;9.160;2023-02-14T16:01:02;18.63;;;13.55;;
3465;SDS011;1747;48.884;9.160;2023-02-14T16:03:31;19.83;;;14.50;;
3465;SDS011;1747;48.884;9.160;2023-02-14T16:06:01;20.17;;;14.38;;
3465;SDS011;1747;48.884;9.160;2023-02-14T16:08:29;20.25;;;13.60;;
3465;SDS011;1747;48.884;9.160;2023-02-14T16:10:59;22.23;;;14.63;;
3465;SDS011;1747;48.884;9.160;2023-02-14T16:13:29;23.10;;;14.70;;
3465;SDS011;1747;48.884;9.160;2023-02-14T16:15:58;20.33;;;14.05;;
3465;SDS011;1747;48.884;9.160;2023-02-14T16:18:36;26.25;;;14.80;;
3465;SDS011;1747;48.884;9.160;2023-02-14T16:21:12;20.50;;;12.48;;
3465;SDS011;1747;48.884;9.160;2023-02-14T16:23:41;23.08;;;13.77;;
3465;SDS011;1747;48.884;9.160;2023-02-14T16:26:10;19.15;;;12.65;;
3465;SDS011;1747;48.884;9.160;2023-02-14T16:28:39;21.48;;;14.70;;
3465;SDS011;1747;48.884;9.160;2023-02-14T16:31:06;19.92;;;13.98;;
3465;SDS011;1747;48.884;9.160;2023-02-14T16:33:40;21.38;;;13.88;;
3465;SDS011;1747;48.884;9.160;2023-02-14T16:36:10;22.38;;;14.13;;